createdAt,value
2022-12-15T00:03:53.723Z,32.55
2022-12-15T00:08:56.103Z,31.30
2022-12-15T00:13:58.446Z,31.25
2022-12-15T00:19:00.246Z,28.77
2022-12-15T00:24:02.816Z,32.67
2022-12-15T00:29:05.392Z,32.25
2022-12-15T00:34:07.454Z,28.63
2022-12-15T00:39:09.261Z,29.45
2022-12-15T00:44:15.731Z,30.20
2022-12-15T00:49:19.169Z,35.13
2022-12-15T00:54:20.923Z,32.78
2022-12-15T00:59:22.589Z,31.50
2022-12-15T01:04:24.408Z,32.33
2022-12-15T01:09:26.362Z,30.25
2022-12-15T01:14:28.424Z,30.42
2022-12-15T01:19:30.182Z,32.53
2022-12-15T01:24:31.879Z,30.75
2022-12-15T01:29:33.559Z,32.07
2022-12-15T01:34:35.333Z,29.92
2022-12-15T01:39:37.170Z,32.57
2022-12-15T01:44:38.984Z,35.95
2022-12-15T01:49:42.572Z,32.70
2022-12-15T01:54:51.806Z,28.13
2022-12-15T01:59:58.152Z,32.97
2022-12-15T02:05:01.374Z,31.85
2022-12-15T02:10:06.765Z,29.75
2022-12-15T02:15:17.874Z,30.60
2022-12-15T02:20:22.455Z,32.13
2022-12-15T02:26:18.605Z,31.27
2022-12-15T02:31:34.555Z,30.23
2022-12-15T02:36:39.858Z,32.30
2022-12-15T02:41:44.425Z,26.85
2022-12-15T02:47:10.522Z,31.38
2022-12-15T02:52:20.779Z,30.75
2022-12-15T02:57:40.867Z,31.13
2022-12-15T03:02:47.448Z,31.63
2022-12-15T03:07:51.236Z,29.03
2022-12-15T03:12:53.156Z,28.85
2022-12-15T03:17:54.902Z,28.70
2022-12-15T03:22:56.586Z,28.83
2022-12-15T03:27:58.360Z,28.67
2022-12-15T03:33:00.035Z,32.28
2022-12-15T03:38:01.838Z,26.50
2022-12-15T03:43:03.543Z,28.45
2022-12-15T03:48:05.355Z,29.13
2022-12-15T03:53:07.294Z,26.15
2022-12-15T03:58:09.074Z,27.02
2022-12-15T04:03:11.845Z,29.35
2022-12-15T04:08:13.659Z,32.58
2022-12-15T04:13:15.364Z,28.25
2022-12-15T04:18:17.185Z,26.93
2022-12-15T04:23:18.938Z,28.60
2022-12-15T04:28:21.144Z,30.77
2022-12-15T04:33:29.114Z,24.97
2022-12-15T04:38:32.502Z,27.70
2022-12-15T04:43:34.653Z,26.93
2022-12-15T04:48:36.478Z,26.30
2022-12-15T04:53:38.273Z,27.58
2022-12-15T04:58:40.078Z,26.95
2022-12-15T05:03:42.157Z,28.55
2022-12-15T05:08:43.827Z,28.60
2022-12-15T05:13:45.623Z,30.60
2022-12-15T05:18:47.353Z,26.60
2022-12-15T05:23:49.051Z,28.30
2022-12-15T05:28:50.786Z,25.35
2022-12-15T05:33:53.667Z,30.77
2022-12-15T05:38:55.359Z,28.55
2022-12-15T05:43:57.047Z,26.40
2022-12-15T05:48:58.757Z,27.33
2022-12-15T05:54:00.521Z,24.40
2022-12-15T05:59:02.752Z,26.10
2022-12-15T06:04:04.603Z,21.63
2022-12-15T06:09:06.713Z,23.67
2022-12-15T06:14:09.299Z,24.17
2022-12-15T06:19:11.027Z,26.37
2022-12-15T06:24:12.804Z,25.08
2022-12-15T06:29:14.745Z,27.87
2022-12-15T06:34:17.534Z,25.33
2022-12-15T06:39:19.330Z,24.00
2022-12-15T06:44:21.127Z,28.92
2022-12-15T06:49:22.860Z,25.93
2022-12-15T06:54:24.591Z,28.20
2022-12-15T06:59:26.284Z,27.23
2022-12-15T07:04:28.107Z,27.98
2022-12-15T07:09:29.859Z,31.57
2022-12-15T07:14:31.542Z,26.35
2022-12-15T07:19:33.219Z,26.02
2022-12-15T07:24:35.007Z,28.83
2022-12-15T07:29:36.710Z,29.75
2022-12-15T07:34:38.598Z,31.87
2022-12-15T07:39:40.306Z,30.85
2022-12-15T07:44:42.054Z,29.93
2022-12-15T07:49:43.771Z,31.65
2022-12-15T07:54:45.531Z,30.43
2022-12-15T07:59:47.227Z,32.15
2022-12-15T08:04:49.215Z,31.27
2022-12-15T08:09:52.815Z,31.00
2022-12-15T08:14:54.580Z,31.03
2022-12-15T08:19:58.853Z,32.58
2022-12-15T08:25:00.767Z,28.38
2022-12-15T08:30:02.662Z,32.07
2022-12-15T08:35:04.633Z,27.58
2022-12-15T08:40:07.479Z,27.42
2022-12-15T08:45:10.139Z,30.67
2022-12-15T08:50:11.917Z,32.40
2022-12-15T08:55:16.777Z,27.85
2022-12-15T09:00:22.686Z,27.35
2022-12-15T09:05:24.531Z,28.40
2022-12-15T09:10:26.295Z,30.20
2022-12-15T09:15:51.935Z,23.93
2022-12-15T09:20:49.851Z,18.90
2022-12-15T09:25:51.710Z,15.93
2022-12-15T09:30:53.587Z,18.75
2022-12-15T09:35:55.339Z,19.97
2022-12-15T09:40:57.154Z,16.70
2022-12-15T09:46:06.312Z,18.37
2022-12-15T09:51:16.494Z,21.92
2022-12-15T09:56:31.890Z,21.38
2022-12-15T10:01:55.756Z,20.10
2022-12-15T10:06:57.710Z,22.05
2022-12-15T10:12:07.295Z,23.20
2022-12-15T10:17:26.955Z,23.73
2022-12-15T10:22:35.044Z,23.85
2022-12-15T10:27:55.600Z,22.48
2022-12-15T10:32:57.529Z,21.55
2022-12-15T10:38:02.462Z,23.02
2022-12-15T10:43:24.281Z,26.40
2022-12-15T10:48:25.968Z,23.55
2022-12-15T10:54:02.614Z,26.33
2022-12-15T10:59:31.275Z,25.13
2022-12-15T11:04:33.337Z,22.77
2022-12-15T11:09:37.600Z,24.45
2022-12-15T11:14:49.813Z,28.02
2022-12-15T11:20:03.493Z,24.57
2022-12-15T11:25:25.611Z,26.70
2022-12-15T11:30:38.352Z,26.42
2022-12-15T11:36:12.199Z,24.07
2022-12-15T11:41:34.913Z,24.63
2022-12-15T11:47:08.381Z,27.80
2022-12-15T11:52:20.989Z,24.90
2022-12-15T11:57:50.512Z,20.77
2022-12-15T12:03:01.363Z,24.87
2022-12-15T12:08:12.084Z,20.90
2022-12-15T12:13:35.365Z,21.33
2022-12-15T12:18:43.562Z,21.30
2022-12-15T12:23:51.852Z,21.13
2022-12-15T12:29:06.514Z,21.15
2022-12-15T12:34:17.966Z,20.45
2022-12-15T12:39:25.402Z,19.15
2022-12-15T12:44:33.797Z,22.63
2022-12-15T12:49:44.204Z,32.47
2022-12-15T12:54:54.907Z,23.90
2022-12-15T13:00:34.895Z,20.42
2022-12-15T13:05:38.528Z,21.97
2022-12-15T13:10:45.625Z,19.05
2022-12-15T13:21:35.834Z,23.67
2022-12-15T13:26:44.688Z,19.67
2022-12-15T13:31:51.010Z,20.90
2022-12-15T13:36:55.798Z,20.08
2022-12-15T13:47:31.448Z,19.83
2022-12-15T13:53:17.422Z,18.10
2022-12-15T13:58:13.483Z,20.43
2022-12-15T14:03:15.177Z,19.08
2022-12-15T14:08:17.649Z,18.17
2022-12-15T14:13:27.278Z,16.80
2022-12-15T14:18:37.253Z,19.88
2022-12-15T14:24:10.914Z,17.80
2022-12-15T14:29:06.204Z,21.20
2022-12-15T14:34:20.015Z,24.10
2022-12-15T14:39:30.941Z,21.63
2022-12-15T14:44:39.427Z,18.77
2022-12-15T14:49:43.404Z,23.17
2022-12-15T14:54:57.318Z,19.27
2022-12-15T14:59:59.528Z,20.98
2022-12-15T15:03:12.306Z,18.70
2022-12-15T15:05:06.180Z,20.07
2022-12-15T15:10:25.092Z,21.27
2022-12-15T15:15:27.102Z,18.67
2022-12-15T15:20:31.804Z,18.95
2022-12-15T15:25:39.420Z,19.03
2022-12-15T15:30:56.712Z,17.50
2022-12-15T15:36:01.149Z,15.93
2022-12-15T15:41:19.509Z,14.93
2022-12-15T15:46:24.007Z,18.23
2022-12-15T15:51:27.145Z,16.70
2022-12-15T15:56:28.888Z,17.40
2022-12-15T16:01:30.752Z,21.75
2022-12-15T16:06:32.694Z,16.38
2022-12-15T16:11:34.496Z,18.23
2022-12-15T16:16:36.226Z,19.73
2022-12-15T16:21:39.634Z,15.93
2022-12-15T16:26:47.113Z,21.52
2022-12-15T16:31:48.948Z,17.92
2022-12-15T16:36:50.899Z,19.23
2022-12-15T16:41:54.833Z,17.58
2022-12-15T16:46:57.877Z,18.08
2022-12-15T16:51:59.664Z,19.10
2022-12-15T16:57:01.462Z,19.40
2022-12-15T17:02:27.897Z,22.13
2022-12-15T17:07:29.978Z,19.20
2022-12-15T17:12:31.955Z,18.00
2022-12-15T17:17:33.659Z,22.02
2022-12-15T17:22:36.262Z,20.95
2022-12-15T17:27:37.974Z,18.83
2022-12-15T17:32:39.717Z,18.43
2022-12-15T17:37:42.186Z,19.85
2022-12-15T17:42:44.721Z,18.55
2022-12-15T17:47:46.714Z,19.65
2022-12-15T17:52:48.718Z,19.02
2022-12-15T17:57:51.725Z,21.13
2022-12-15T18:02:54.909Z,15.63
2022-12-15T18:08:00.357Z,15.87
2022-12-15T18:13:02.369Z,16.20
2022-12-15T18:18:04.150Z,17.77
2022-12-15T18:23:21.433Z,18.83
2022-12-15T18:28:29.309Z,15.60
2022-12-15T18:33:31.671Z,18.67
2022-12-15T18:38:33.674Z,19.60
2022-12-15T18:43:35.642Z,15.45
2022-12-15T18:48:37.552Z,15.70
2022-12-15T18:53:40.350Z,18.25
2022-12-15T18:58:42.176Z,15.48
2022-12-15T19:03:43.928Z,14.30
2022-12-15T19:08:45.969Z,15.65
2022-12-15T19:13:47.672Z,16.85
2022-12-15T19:18:49.378Z,19.85
2022-12-15T19:23:51.099Z,14.73
2022-12-15T19:28:52.837Z,20.10
2022-12-15T19:33:54.603Z,13.93
2022-12-15T19:38:56.414Z,12.10
2022-12-15T19:43:58.131Z,14.33
2022-12-15T19:48:59.845Z,12.68
2022-12-15T19:54:01.607Z,12.85
2022-12-15T19:59:03.325Z,12.23
2022-12-15T20:04:05.049Z,14.40
2022-12-15T20:09:10.595Z,12.97
2022-12-15T20:14:14.274Z,13.60
2022-12-15T20:19:16.073Z,15.98
2022-12-15T20:24:19.322Z,11.52
2022-12-15T20:29:28.101Z,12.95
2022-12-15T20:34:29.853Z,14.65
2022-12-15T20:39:31.549Z,12.48
2022-12-15T20:44:33.305Z,12.07
2022-12-15T20:49:35.110Z,11.00
2022-12-15T20:54:36.858Z,13.70
2022-12-15T20:59:38.906Z,11.83
2022-12-15T21:04:40.681Z,12.20
2022-12-15T21:09:42.426Z,12.70
2022-12-15T21:14:45.048Z,12.38
2022-12-15T21:19:47.639Z,13.43
2022-12-15T21:24:52.701Z,11.82
2022-12-15T21:29:56.135Z,11.43
2022-12-15T21:34:57.979Z,11.43
2022-12-15T21:40:00.171Z,10.10
2022-12-15T21:45:02.671Z,11.00
2022-12-15T21:50:04.743Z,7.97
2022-12-15T21:55:15.260Z,9.77
2022-12-15T22:00:18.609Z,9.23
2022-12-15T22:05:23.963Z,7.60
2022-12-15T22:10:25.733Z,6.97
2022-12-15T22:15:29.874Z,5.68
2022-12-15T22:20:31.784Z,4.93
2022-12-15T22:25:33.633Z,4.20
2022-12-15T22:30:35.499Z,5.20
2022-12-15T22:35:37.287Z,4.57
2022-12-15T22:40:39.627Z,5.85
2022-12-15T22:45:42.940Z,4.85
2022-12-15T22:50:44.849Z,6.37
2022-12-15T22:55:49.052Z,5.22
2022-12-15T23:00:54.683Z,6.57
2022-12-15T23:05:56.856Z,5.83
2022-12-15T23:11:00.882Z,5.78
2022-12-15T23:16:04.128Z,6.80
2022-12-15T23:21:06.095Z,5.70
2022-12-15T23:26:07.809Z,6.13
2022-12-15T23:31:10.509Z,6.60
2022-12-15T23:36:12.838Z,6.45
2022-12-15T23:41:16.182Z,7.07
2022-12-15T23:46:17.955Z,7.17
2022-12-15T23:51:20.722Z,6.80
2022-12-15T23:56:25.875Z,6.40
